TimeCST,TemperatureF,Dew PointF,Humidity,Sea Level PressureIn,VisibilityMPH,Wind Direction,Wind SpeedMPH,Gust SpeedMPH,PrecipitationIn,Events,Conditions,WindDirDegrees,DateUTC
12:56 AM,37.0,35.1,93,30.24,7.0,East,3.5,-,N/A,,Clear,90,2012-11-09 06:56:00
1:56 AM,36.0,34.0,93,30.25,5.0,Calm,Calm,-,N/A,,Clear,0,2012-11-09 07:56:00
2:20 AM,35.6,33.8,93,30.22,2.0,Calm,Calm,-,N/A,,Clear,0,2012-11-09 08:20:00
2:30 AM,35.6,33.8,93,30.22,5.0,Calm,Calm,-,N/A,,Clear,0,2012-11-09 08:30:00
2:56 AM,36.0,33.1,89,30.26,6.0,Calm,Calm,-,N/A,,Clear,0,2012-11-09 08:56:00
3:56 AM,35.1,32.0,89,30.27,6.0,Calm,Calm,-,N/A,,Clear,0,2012-11-09 09:56:00
4:56 AM,34.0,32.0,92,30.29,6.0,Calm,Calm,-,N/A,,Clear,0,2012-11-09 10:56:00
5:58 AM,33.8,30.2,87,30.27,6.0,Calm,Calm,-,N/A,,Mostly Cloudy,0,2012-11-09 11:58:00
6:56 AM,35.1,33.1,92,30.33,7.0,Calm,Calm,-,N/A,,Mostly Cloudy,0,2012-11-09 12:56:00
7:56 AM,43.0,39.0,86,30.34,8.0,Calm,Calm,-,N/A,,Mostly Cloudy,0,2012-11-09 13:56:00
8:56 AM,50.0,43.0,77,30.35,10.0,Calm,Calm,-,N/A,,Mostly Cloudy,0,2012-11-09 14:56:00
9:56 AM,59.0,42.1,53,30.35,10.0,SE,6.9,-,N/A,,Mostly Cloudy,140,2012-11-09 15:56:00
10:56 AM,62.1,42.1,48,30.33,10.0,Calm,Calm,-,N/A,,Mostly Cloudy,0,2012-11-09 16:56:00
11:56 AM,64.9,42.1,43,30.30,10.0,Calm,Calm,-,N/A,,Mostly Cloudy,0,2012-11-09 17:56:00
12:56 PM,66.9,41.0,39,30.26,10.0,Variable,5.8,-,N/A,,Scattered Clouds,0,2012-11-09 18:56:00
1:56 PM,68.0,41.0,37,30.25,10.0,Calm,Calm,-,N/A,,Scattered Clouds,0,2012-11-09 19:56:00
2:56 PM,69.1,42.1,38,30.24,10.0,Variable,4.6,-,N/A,,Partly Cloudy,0,2012-11-09 20:56:00
3:56 PM,68.0,41.0,37,30.23,10.0,SE,4.6,-,N/A,,Partly Cloudy,140,2012-11-09 21:56:00
4:56 PM,60.1,45.0,57,30.24,10.0,SSE,3.5,-,N/A,,Partly Cloudy,150,2012-11-09 22:56:00
5:56 PM,57.9,45.0,62,30.25,10.0,SSE,3.5,-,N/A,,Clear,150,2012-11-09 23:56:00
6:56 PM,55.9,43.0,62,30.25,10.0,SSE,3.5,-,N/A,,Clear,150,2012-11-10 00:56:00
7:56 PM,55.0,43.0,64,30.25,9.0,SSE,3.5,-,N/A,,Clear,160,2012-11-10 01:56:00
8:56 PM,54.0,42.1,64,30.26,10.0,SSE,3.5,-,N/A,,Clear,160,2012-11-10 02:56:00
9:56 PM,48.9,44.1,83,30.27,8.0,Calm,Calm,-,N/A,,Clear,0,2012-11-10 03:56:00
10:56 PM,46.9,43.0,86,30.26,6.0,Calm,Calm,-,N/A,,Clear,0,2012-11-10 04:56:00
11:16 PM,46.4,42.8,87,30.23,1.8,Calm,Calm,-,N/A,,Clear,0,2012-11-10 05:16:00
11:21 PM,46.4,42.8,87,30.23,0.8,Calm,Calm,-,N/A,,Clear,0,2012-11-10 05:21:00
11:28 PM,46.4,44.6,93,30.22,0.5,Calm,Calm,-,N/A,Fog,Fog,0,2012-11-10 05:28:00
11:33 PM,46.4,42.8,87,30.22,1.0,SSE,3.5,-,N/A,,Clear,150,2012-11-10 05:33:00
11:35 PM,46.4,42.8,87,30.22,2.0,SSE,3.5,-,N/A,,Clear,150,2012-11-10 05:35:00
11:42 PM,46.4,42.8,87,30.22,7.0,SE,3.5,-,N/A,,Clear,140,2012-11-10 05:42:00
11:56 PM,48.9,43.0,80,30.26,7.0,Calm,Calm,-,N/A,,Clear,0,2012-11-10 05:56:00